sensor_id;sensor_type;location;lat;lon;timestamp;P1;durP1;ratioP1;P2;durP2;ratioP2
25721;SDS011;13578;53.450;15.496;2023-03-23T00:01:00;12.65;;;3.70;;
25721;SDS011;13578;53.450;15.496;2023-03-23T00:04:01;7.40;;;4.13;;
25721;SDS011;13578;53.450;15.496;2023-03-23T00:07:01;6.45;;;3.40;;
25721;SDS011;13578;53.450;15.496;2023-03-23T00:10:03;7.30;;;3.45;;
25721;SDS011;13578;53.450;15.496;2023-03-23T00:13:03;8.48;;;3.85;;
25721;SDS011;13578;53.450;15.496;2023-03-23T00:16:04;5.53;;;3.05;;
25721;SDS011;13578;53.450;15.496;2023-03-23T00:19:06;6.50;;;3.58;;
25721;SDS011;13578;53.450;15.496;2023-03-23T00:22:08;12.32;;;3.72;;
25721;SDS011;13578;53.450;15.496;2023-03-23T00:25:09;13.85;;;3.60;;
25721;SDS011;13578;53.450;15.496;2023-03-23T00:28:10;7.18;;;3.38;;
25721;SDS011;13578;53.450;15.496;2023-03-23T00:31:12;5.57;;;3.38;;
25721;SDS011;13578;53.450;15.496;2023-03-23T00:34:14;10.75;;;3.65;;
25721;SDS011;13578;53.450;15.496;2023-03-23T00:40:20;7.95;;;3.28;;
25721;SDS011;13578;53.450;15.496;2023-03-23T00:43:20;7.40;;;3.47;;
25721;SDS011;13578;53.450;15.496;2023-03-23T00:46:24;7.93;;;3.40;;
25721;SDS011;13578;53.450;15.496;2023-03-23T00:49:25;5.03;;;3.40;;
25721;SDS011;13578;53.450;15.496;2023-03-23T00:52:26;10.45;;;4.18;;
25721;SDS011;13578;53.450;15.496;2023-03-23T00:55:26;9.07;;;4.18;;
25721;SDS011;13578;53.450;15.496;2023-03-23T00:58:27;6.85;;;3.42;;
25721;SDS011;13578;53.450;15.496;2023-03-23T01:01:28;6.00;;;4.43;;
25721;SDS011;13578;53.450;15.496;2023-03-23T01:04:29;4.43;;;3.35;;
25721;SDS011;13578;53.450;15.496;2023-03-23T01:07:31;5.43;;;3.90;;
25721;SDS011;13578;53.450;15.496;2023-03-23T01:10:33;8.85;;;3.97;;
25721;SDS011;13578;53.450;15.496;2023-03-23T01:13:33;11.85;;;4.07;;
25721;SDS011;13578;53.450;15.496;2023-03-23T01:16:34;6.43;;;3.85;;
25721;SDS011;13578;53.450;15.496;2023-03-23T01:19:35;7.50;;;4.10;;
25721;SDS011;13578;53.450;15.496;2023-03-23T01:22:38;6.85;;;3.70;;
25721;SDS011;13578;53.450;15.496;2023-03-23T01:25:39;6.38;;;4.13;;
25721;SDS011;13578;53.450;15.496;2023-03-23T01:28:40;7.80;;;4.03;;
25721;SDS011;13578;53.450;15.496;2023-03-23T01:31:41;8.60;;;4.13;;
25721;SDS011;13578;53.450;15.496;2023-03-23T01:34:42;7.05;;;3.72;;
25721;SDS011;13578;53.450;15.496;2023-03-23T01:37:43;6.30;;;3.47;;
25721;SDS011;13578;53.450;15.496;2023-03-23T01:40:43;10.63;;;3.83;;
25721;SDS011;13578;53.450;15.496;2023-03-23T01:43:54;8.30;;;4.10;;
25721;SDS011;13578;53.450;15.496;2023-03-23T01:47:01;7.03;;;3.70;;
25721;SDS011;13578;53.450;15.496;2023-03-23T01:50:01;6.40;;;3.50;;
25721;SDS011;13578;53.450;15.496;2023-03-23T01:53:03;7.05;;;3.97;;
25721;SDS011;13578;53.450;15.496;2023-03-23T01:56:08;7.10;;;2.95;;
25721;SDS011;13578;53.450;15.496;2023-03-23T01:59:11;4.47;;;3.28;;
25721;SDS011;13578;53.450;15.496;2023-03-23T02:02:13;4.93;;;3.20;;
25721;SDS011;13578;53.450;15.496;2023-03-23T02:05:36;7.68;;;3.05;;
25721;SDS011;13578;53.450;15.496;2023-03-23T02:08:40;3.28;;;2.63;;
25721;SDS011;13578;53.450;15.496;2023-03-23T02:11:44;3.55;;;2.75;;
25721;SDS011;13578;53.450;15.496;2023-03-23T02:14:46;6.43;;;2.88;;
25721;SDS011;13578;53.450;15.496;2023-03-23T02:17:50;7.43;;;2.85;;
25721;SDS011;13578;53.450;15.496;2023-03-23T02:24:57;5.38;;;3.33;;
25721;SDS011;13578;53.450;15.496;2023-03-23T02:28:08;6.20;;;2.75;;
25721;SDS011;13578;53.450;15.496;2023-03-23T02:31:47;7.78;;;3.05;;
25721;SDS011;13578;53.450;15.496;2023-03-23T02:34:55;9.00;;;3.13;;
25721;SDS011;13578;53.450;15.496;2023-03-23T02:38:01;11.82;;;3.92;;
25721;SDS011;13578;53.450;15.496;2023-03-23T02:41:06;5.90;;;3.15;;
25721;SDS011;13578;53.450;15.496;2023-03-23T02:44:11;5.82;;;2.78;;
25721;SDS011;13578;53.450;15.496;2023-03-23T02:47:24;6.82;;;2.40;;
25721;SDS011;13578;53.450;15.496;2023-03-23T02:50:27;6.70;;;3.15;;
25721;SDS011;13578;53.450;15.496;2023-03-23T02:53:30;2.97;;;2.35;;
25721;SDS011;13578;53.450;15.496;2023-03-23T02:56:34;26.27;;;3.35;;
25721;SDS011;13578;53.450;15.496;2023-03-23T02:59:36;4.50;;;2.55;;
25721;SDS011;13578;53.450;15.496;2023-03-23T03:02:37;7.15;;;2.83;;
25721;SDS011;13578;53.450;15.496;2023-03-23T03:15:59;5.70;;;3.35;;
25721;SDS011;13578;53.450;15.496;2023-03-23T03:22:18;4.38;;;2.72;;
25721;SDS011;13578;53.450;15.496;2023-03-23T03:25:21;3.75;;;2.50;;
25721;SDS011;13578;53.450;15.496;2023-03-23T03:28:23;7.32;;;2.85;;
25721;SDS011;13578;53.450;15.496;2023-03-23T03:31:31;3.90;;;2.63;;
25721;SDS011;13578;53.450;15.496;2023-03-23T03:34:36;4.05;;;2.58;;
25721;SDS011;13578;53.450;15.496;2023-03-23T03:37:37;5.20;;;2.72;;
25721;SDS011;13578;53.450;15.496;2023-03-23T03:40:39;5.72;;;1.95;;
25721;SDS011;13578;53.450;15.496;2023-03-23T03:43:40;3.05;;;2.40;;
25721;SDS011;13578;53.450;15.496;2023-03-23T03:46:41;3.38;;;1.90;;
25721;SDS011;13578;53.450;15.496;2023-03-23T03:49:42;6.50;;;2.47;;
25721;SDS011;13578;53.450;15.496;2023-03-23T03:52:42;8.30;;;2.95;;
25721;SDS011;13578;53.450;15.496;2023-03-23T03:55:43;5.47;;;3.05;;
25721;SDS011;13578;53.450;15.496;2023-03-23T03:58:45;4.05;;;2.55;;
25721;SDS011;13578;53.450;15.496;2023-03-23T04:01:48;6.25;;;2.83;;
25721;SDS011;13578;53.450;15.496;2023-03-23T04:04:54;3.55;;;2.83;;
25721;SDS011;13578;53.450;15.496;2023-03-23T04:07:54;3.03;;;2.33;;
25721;SDS011;13578;53.450;15.496;2023-03-23T04:11:01;8.00;;;2.22;;
25721;SDS011;13578;53.450;15.496;2023-03-23T04:14:02;8.90;;;2.60;;
25721;SDS011;13578;53.450;15.496;2023-03-23T04:17:03;5.15;;;2.50;;
25721;SDS011;13578;53.450;15.496;2023-03-23T04:20:04;6.47;;;2.60;;
25721;SDS011;13578;53.450;15.496;2023-03-23T04:23:16;6.07;;;2.80;;
25721;SDS011;13578;53.450;15.496;2023-03-23T04:26:20;7.53;;;2.70;;
25721;SDS011;13578;53.450;15.496;2023-03-23T04:29:20;4.07;;;2.50;;
25721;SDS011;13578;53.450;15.496;2023-03-23T04:32:21;3.05;;;2.50;;
25721;SDS011;13578;53.450;15.496;2023-03-23T04:35:25;6.10;;;3.05;;
25721;SDS011;13578;53.450;15.496;2023-03-23T04:38:26;4.57;;;2.60;;
25721;SDS011;13578;53.450;15.496;2023-03-23T04:41:28;5.25;;;2.70;;
25721;SDS011;13578;53.450;15.496;2023-03-23T04:44:29;3.85;;;2.70;;
25721;SDS011;13578;53.450;15.496;2023-03-23T04:47:34;9.90;;;2.78;;
25721;SDS011;13578;53.450;15.496;2023-03-23T04:50:40;4.03;;;2.70;;
25721;SDS011;13578;53.450;15.496;2023-03-23T04:53:40;3.67;;;2.28;;
25721;SDS011;13578;53.450;15.496;2023-03-23T04:56:41;4.22;;;3.10;;
25721;SDS011;13578;53.450;15.496;2023-03-23T04:59:42;4.18;;;2.70;;
25721;SDS011;13578;53.450;15.496;2023-03-23T05:02:44;4.72;;;2.17;;
25721;SDS011;13578;53.450;15.496;2023-03-23T05:05:46;13.23;;;3.10;;
25721;SDS011;13578;53.450;15.496;2023-03-23T05:08:51;9.68;;;2.75;;
25721;SDS011;13578;53.450;15.496;2023-03-23T05:11:52;4.32;;;2.78;;
25721;SDS011;13578;53.450;15.496;2023-03-23T05:14:53;3.80;;;2.53;;
25721;SDS011;13578;53.450;15.496;2023-03-23T05:17:53;7.85;;;3.15;;
25721;SDS011;13578;53.450;15.496;2023-03-23T05:20:58;5.28;;;2.97;;
25721;SDS011;13578;53.450;15.496;2023-03-23T05:24:00;5.40;;;3.60;;
25721;SDS011;13578;53.450;15.496;2023-03-23T05:27:00;5.10;;;2.60;;
25721;SDS011;13578;53.450;15.496;2023-03-23T05:30:02;5.80;;;3.17;;
25721;SDS011;13578;53.450;15.496;2023-03-23T05:33:04;4.00;;;2.83;;
25721;SDS011;13578;53.450;15.496;2023-03-23T05:36:05;4.20;;;3.00;;
25721;SDS011;13578;53.450;15.496;2023-03-23T05:39:11;9.82;;;3.30;;
25721;SDS011;13578;53.450;15.496;2023-03-23T05:42:12;3.90;;;3.17;;
25721;SDS011;13578;53.450;15.496;2023-03-23T05:45:13;3.28;;;2.80;;
25721;SDS011;13578;53.450;15.496;2023-03-23T05:48:14;4.10;;;2.90;;
25721;SDS011;13578;53.450;15.496;2023-03-23T05:51:14;6.85;;;3.13;;
25721;SDS011;13578;53.450;15.496;2023-03-23T05:54:15;4.32;;;3.00;;
25721;SDS011;13578;53.450;15.496;2023-03-23T05:57:16;6.60;;;3.03;;
25721;SDS011;13578;53.450;15.496;2023-03-23T06:00:18;5.93;;;2.85;;
25721;SDS011;13578;53.450;15.496;2023-03-23T06:03:19;4.00;;;3.05;;
25721;SDS011;13578;53.450;15.496;2023-03-23T06:06:21;4.38;;;2.88;;
25721;SDS011;13578;53.450;15.496;2023-03-23T06:09:21;5.53;;;3.10;;
25721;SDS011;13578;53.450;15.496;2023-03-23T06:12:23;3.83;;;3.40;;
25721;SDS011;13578;53.450;15.496;2023-03-23T06:15:24;3.58;;;3.00;;
25721;SDS011;13578;53.450;15.496;2023-03-23T06:18:29;4.55;;;3.00;;
25721;SDS011;13578;53.450;15.496;2023-03-23T06:21:33;5.78;;;3.05;;
25721;SDS011;13578;53.450;15.496;2023-03-23T06:24:34;3.88;;;3.17;;
25721;SDS011;13578;53.450;15.496;2023-03-23T06:27:35;10.45;;;3.70;;
25721;SDS011;13578;53.450;15.496;2023-03-23T06:30:36;5.47;;;3.60;;
25721;SDS011;13578;53.450;15.496;2023-03-23T06:33:37;8.25;;;3.40;;
25721;SDS011;13578;53.450;15.496;2023-03-23T06:36:39;5.15;;;3.15;;
25721;SDS011;13578;53.450;15.496;2023-03-23T06:39:40;4.80;;;3.47;;
25721;SDS011;13578;53.450;15.496;2023-03-23T06:42:40;5.45;;;3.92;;
25721;SDS011;13578;53.450;15.496;2023-03-23T06:45:41;4.75;;;3.53;;
25721;SDS011;13578;53.450;15.496;2023-03-23T06:48:42;4.43;;;3.60;;
25721;SDS011;13578;53.450;15.496;2023-03-23T06:51:42;9.50;;;3.75;;
25721;SDS011;13578;53.450;15.496;2023-03-23T06:54:43;5.93;;;3.95;;
25721;SDS011;13578;53.450;15.496;2023-03-23T06:57:44;5.40;;;3.47;;
25721;SDS011;13578;53.450;15.496;2023-03-23T07:00:44;4.45;;;3.13;;
25721;SDS011;13578;53.450;15.496;2023-03-23T07:03:45;6.28;;;4.00;;
25721;SDS011;13578;53.450;15.496;2023-03-23T07:06:46;4.65;;;3.83;;
25721;SDS011;13578;53.450;15.496;2023-03-23T07:09:47;5.95;;;3.92;;
25721;SDS011;13578;53.450;15.496;2023-03-23T07:12:47;12.50;;;4.50;;
25721;SDS011;13578;53.450;15.496;2023-03-23T07:15:48;11.13;;;4.47;;
25721;SDS011;13578;53.450;15.496;2023-03-23T07:18:50;18.55;;;4.68;;
25721;SDS011;13578;53.450;15.496;2023-03-23T07:21:51;5.30;;;4.30;;
25721;SDS011;13578;53.450;15.496;2023-03-23T07:24:52;7.85;;;3.67;;
25721;SDS011;13578;53.450;15.496;2023-03-23T07:27:52;8.40;;;4.97;;
25721;SDS011;13578;53.450;15.496;2023-03-23T07:30:53;8.32;;;3.70;;
25721;SDS011;13578;53.450;15.496;2023-03-23T07:33:53;5.78;;;3.75;;
25721;SDS011;13578;53.450;15.496;2023-03-23T07:36:54;4.97;;;3.75;;
25721;SDS011;13578;53.450;15.496;2023-03-23T07:39:55;7.03;;;4.70;;
25721;SDS011;13578;53.450;15.496;2023-03-23T07:42:57;6.85;;;3.58;;
25721;SDS011;13578;53.450;15.496;2023-03-23T07:45:57;5.38;;;3.63;;
25721;SDS011;13578;53.450;15.496;2023-03-23T07:48:58;5.35;;;3.58;;
25721;SDS011;13578;53.450;15.496;2023-03-23T07:52:00;9.15;;;4.20;;
25721;SDS011;13578;53.450;15.496;2023-03-23T07:55:01;7.85;;;3.72;;
25721;SDS011;13578;53.450;15.496;2023-03-23T07:58:03;7.32;;;4.47;;
25721;SDS011;13578;53.450;15.496;2023-03-23T08:01:04;6.03;;;4.28;;
25721;SDS011;13578;53.450;15.496;2023-03-23T08:04:05;12.95;;;3.85;;
25721;SDS011;13578;53.450;15.496;2023-03-23T08:07:07;6.22;;;4.20;;
25721;SDS011;13578;53.450;15.496;2023-03-23T08:10:09;5.68;;;4.30;;
25721;SDS011;13578;53.450;15.496;2023-03-23T08:13:11;7.60;;;4.20;;
25721;SDS011;13578;53.450;15.496;2023-03-23T08:16:12;8.30;;;4.78;;
25721;SDS011;13578;53.450;15.496;2023-03-23T08:19:13;6.85;;;4.25;;
25721;SDS011;13578;53.450;15.496;2023-03-23T08:22:14;5.53;;;4.28;;
25721;SDS011;13578;53.450;15.496;2023-03-23T08:25:15;8.20;;;4.07;;
25721;SDS011;13578;53.450;15.496;2023-03-23T08:28:17;9.75;;;3.78;;
25721;SDS011;13578;53.450;15.496;2023-03-23T08:31:17;5.15;;;3.65;;
25721;SDS011;13578;53.450;15.496;2023-03-23T08:34:18;8.88;;;3.90;;
25721;SDS011;13578;53.450;15.496;2023-03-23T08:37:19;7.90;;;4.47;;
25721;SDS011;13578;53.450;15.496;2023-03-23T08:40:21;10.88;;;4.05;;
25721;SDS011;13578;53.450;15.496;2023-03-23T08:43:24;10.00;;;4.68;;
25721;SDS011;13578;53.450;15.496;2023-03-23T08:46:24;8.32;;;4.30;;
25721;SDS011;13578;53.450;15.496;2023-03-23T08:49:25;7.30;;;4.60;;
25721;SDS011;13578;53.450;15.496;2023-03-23T08:52:26;7.43;;;4.10;;
25721;SDS011;13578;53.450;15.496;2023-03-23T08:55:27;4.40;;;3.95;;
25721;SDS011;13578;53.450;15.496;2023-03-23T08:58:29;8.15;;;4.45;;
25721;SDS011;13578;53.450;15.496;2023-03-23T09:01:30;6.85;;;4.40;;
25721;SDS011;13578;53.450;15.496;2023-03-23T09:04:30;9.10;;;4.15;;
25721;SDS011;13578;53.450;15.496;2023-03-23T09:07:31;6.72;;;4.25;;
25721;SDS011;13578;53.450;15.496;2023-03-23T09:10:31;7.10;;;4.25;;
25721;SDS011;13578;53.450;15.496;2023-03-23T09:13:33;11.02;;;4.70;;
25721;SDS011;13578;53.450;15.496;2023-03-23T09:16:34;6.72;;;4.82;;
25721;SDS011;13578;53.450;15.496;2023-03-23T09:19:35;6.22;;;4.30;;
25721;SDS011;13578;53.450;15.496;2023-03-23T09:22:36;7.70;;;4.50;;
25721;SDS011;13578;53.450;15.496;2023-03-23T09:25:38;14.63;;;4.88;;
25721;SDS011;13578;53.450;15.496;2023-03-23T09:28:39;6.43;;;4.22;;
25721;SDS011;13578;53.450;15.496;2023-03-23T09:31:40;6.38;;;3.90;;
25721;SDS011;13578;53.450;15.496;2023-03-23T09:34:41;6.05;;;3.92;;
25721;SDS011;13578;53.450;15.496;2023-03-23T09:37:43;8.35;;;4.63;;
25721;SDS011;13578;53.450;15.496;2023-03-23T09:41:19;8.13;;;5.25;;
25721;SDS011;13578;53.450;15.496;2023-03-23T09:47:49;6.57;;;4.25;;
25721;SDS011;13578;53.450;15.496;2023-03-23T09:54:24;7.10;;;4.25;;
25721;SDS011;13578;53.450;15.496;2023-03-23T09:58:03;8.52;;;4.38;;
25721;SDS011;13578;53.450;15.496;2023-03-23T10:01:17;8.25;;;4.15;;
25721;SDS011;13578;53.450;15.496;2023-03-23T10:04:25;5.10;;;4.03;;
25721;SDS011;13578;53.450;15.496;2023-03-23T10:07:30;15.15;;;4.53;;
25721;SDS011;13578;53.450;15.496;2023-03-23T10:17:30;6.38;;;4.50;;
25721;SDS011;13578;53.450;15.496;2023-03-23T10:20:48;5.40;;;3.95;;
25721;SDS011;13578;53.450;15.496;2023-03-23T10:27:19;7.40;;;4.88;;
25721;SDS011;13578;53.450;15.496;2023-03-23T10:30:53;9.43;;;4.50;;
25721;SDS011;13578;53.450;15.496;2023-03-23T10:33:58;5.68;;;4.18;;
25721;SDS011;13578;53.450;15.496;2023-03-23T10:37:13;6.70;;;4.68;;
25721;SDS011;13578;53.450;15.496;2023-03-23T10:40:21;7.68;;;4.75;;
25721;SDS011;13578;53.450;15.496;2023-03-23T10:43:26;6.82;;;4.63;;
25721;SDS011;13578;53.450;15.496;2023-03-23T10:46:39;7.43;;;3.95;;
25721;SDS011;13578;53.450;15.496;2023-03-23T10:49:53;8.32;;;3.63;;
25721;SDS011;13578;53.450;15.496;2023-03-23T10:52:58;6.63;;;3.38;;
25721;SDS011;13578;53.450;15.496;2023-03-23T10:56:01;5.22;;;3.75;;
25721;SDS011;13578;53.450;15.496;2023-03-23T11:02:41;5.82;;;3.05;;
25721;SDS011;13578;53.450;15.496;2023-03-23T11:05:51;3.83;;;2.50;;
25721;SDS011;13578;53.450;15.496;2023-03-23T11:12:00;5.10;;;2.72;;
25721;SDS011;13578;53.450;15.496;2023-03-23T11:18:40;3.58;;;2.17;;
25721;SDS011;13578;53.450;15.496;2023-03-23T11:21:46;5.13;;;2.33;;
25721;SDS011;13578;53.450;15.496;2023-03-23T11:24:52;5.68;;;2.30;;
25721;SDS011;13578;53.450;15.496;2023-03-23T11:27:54;5.45;;;2.47;;
25721;SDS011;13578;53.450;15.496;2023-03-23T11:30:55;7.88;;;3.05;;
25721;SDS011;13578;53.450;15.496;2023-03-23T11:34:19;8.05;;;3.33;;
25721;SDS011;13578;53.450;15.496;2023-03-23T11:40:52;6.30;;;2.95;;
25721;SDS011;13578;53.450;15.496;2023-03-23T11:43:53;4.30;;;2.85;;
25721;SDS011;13578;53.450;15.496;2023-03-23T11:47:04;6.35;;;2.67;;
25721;SDS011;13578;53.450;15.496;2023-03-23T11:53:30;5.35;;;2.50;;
25721;SDS011;13578;53.450;15.496;2023-03-23T11:56:39;5.90;;;2.55;;
25721;SDS011;13578;53.450;15.496;2023-03-23T11:59:43;2.67;;;1.92;;
25721;SDS011;13578;53.450;15.496;2023-03-23T12:10:24;6.13;;;2.20;;
25721;SDS011;13578;53.450;15.496;2023-03-23T12:19:45;3.63;;;2.05;;
25721;SDS011;13578;53.450;15.496;2023-03-23T12:23:18;3.35;;;2.20;;
25721;SDS011;13578;53.450;15.496;2023-03-23T12:26:34;2.95;;;1.73;;
25721;SDS011;13578;53.450;15.496;2023-03-23T12:29:55;3.50;;;2.05;;
25721;SDS011;13578;53.450;15.496;2023-03-23T12:42:58;2.90;;;1.80;;
25721;SDS011;13578;53.450;15.496;2023-03-23T12:46:14;6.80;;;2.40;;
25721;SDS011;13578;53.450;15.496;2023-03-23T12:49:18;3.35;;;1.90;;
25721;SDS011;13578;53.450;15.496;2023-03-23T12:55:44;2.72;;;1.92;;
25721;SDS011;13578;53.450;15.496;2023-03-23T12:59:12;5.45;;;2.45;;
25721;SDS011;13578;53.450;15.496;2023-03-23T13:02:31;3.03;;;2.15;;
25721;SDS011;13578;53.450;15.496;2023-03-23T13:05:51;5.20;;;2.35;;
25721;SDS011;13578;53.450;15.496;2023-03-23T13:09:15;3.47;;;2.15;;
25721;SDS011;13578;53.450;15.496;2023-03-23T13:12:22;6.75;;;2.15;;
25721;SDS011;13578;53.450;15.496;2023-03-23T13:15:33;2.00;;;1.70;;
25721;SDS011;13578;53.450;15.496;2023-03-23T13:29:08;4.57;;;2.15;;
25721;SDS011;13578;53.450;15.496;2023-03-23T13:32:17;4.60;;;2.33;;
25721;SDS011;13578;53.450;15.496;2023-03-23T13:35:19;2.88;;;1.92;;
25721;SDS011;13578;53.450;15.496;2023-03-23T13:38:27;4.57;;;2.38;;
25721;SDS011;13578;53.450;15.496;2023-03-23T13:47:49;2.28;;;1.65;;
25721;SDS011;13578;53.450;15.496;2023-03-23T13:51:03;4.75;;;1.90;;
25721;SDS011;13578;53.450;15.496;2023-03-23T13:54:39;5.07;;;2.50;;
25721;SDS011;13578;53.450;15.496;2023-03-23T13:57:49;5.05;;;2.47;;
25721;SDS011;13578;53.450;15.496;2023-03-23T14:01:10;2.67;;;1.80;;
25721;SDS011;13578;53.450;15.496;2023-03-23T14:04:16;4.72;;;1.92;;
25721;SDS011;13578;53.450;15.496;2023-03-23T14:07:19;2.95;;;2.03;;
25721;SDS011;13578;53.450;15.496;2023-03-23T14:10:20;3.38;;;2.00;;
25721;SDS011;13578;53.450;15.496;2023-03-23T14:16:48;5.55;;;2.15;;
25721;SDS011;13578;53.450;15.496;2023-03-23T14:19:49;3.05;;;1.90;;
25721;SDS011;13578;53.450;15.496;2023-03-23T14:22:55;8.77;;;1.95;;
25721;SDS011;13578;53.450;15.496;2023-03-23T14:25:58;3.75;;;2.15;;
25721;SDS011;13578;53.450;15.496;2023-03-23T14:29:09;4.57;;;2.38;;
25721;SDS011;13578;53.450;15.496;2023-03-23T14:32:14;5.15;;;2.30;;
25721;SDS011;13578;53.450;15.496;2023-03-23T14:38:30;10.63;;;2.38;;
25721;SDS011;13578;53.450;15.496;2023-03-23T14:41:32;3.22;;;1.77;;
25721;SDS011;13578;53.450;15.496;2023-03-23T14:44:34;5.40;;;1.90;;
25721;SDS011;13578;53.450;15.496;2023-03-23T14:47:49;4.50;;;1.67;;
25721;SDS011;13578;53.450;15.496;2023-03-23T14:51:04;6.45;;;1.70;;
25721;SDS011;13578;53.450;15.496;2023-03-23T14:54:07;3.33;;;1.58;;
25721;SDS011;13578;53.450;15.496;2023-03-23T14:57:29;7.32;;;1.98;;
25721;SDS011;13578;53.450;15.496;2023-03-23T15:00:31;4.22;;;1.42;;
25721;SDS011;13578;53.450;15.496;2023-03-23T15:03:36;5.10;;;1.30;;
25721;SDS011;13578;53.450;15.496;2023-03-23T15:06:43;6.10;;;1.67;;
25721;SDS011;13578;53.450;15.496;2023-03-23T15:09:48;4.80;;;1.80;;
25721;SDS011;13578;53.450;15.496;2023-03-23T15:12:49;2.00;;;1.30;;
25721;SDS011;13578;53.450;15.496;2023-03-23T15:15:52;10.63;;;1.52;;
25721;SDS011;13578;53.450;15.496;2023-03-23T15:19:06;2.65;;;1.20;;
25721;SDS011;13578;53.450;15.496;2023-03-23T15:22:23;5.68;;;1.40;;
25721;SDS011;13578;53.450;15.496;2023-03-23T15:25:30;4.05;;;1.33;;
25721;SDS011;13578;53.450;15.496;2023-03-23T15:28:32;2.25;;;1.13;;
25721;SDS011;13578;53.450;15.496;2023-03-23T15:31:49;3.05;;;1.42;;
25721;SDS011;13578;53.450;15.496;2023-03-23T15:34:51;3.75;;;1.67;;
25721;SDS011;13578;53.450;15.496;2023-03-23T15:38:00;2.38;;;1.65;;
25721;SDS011;13578;53.450;15.496;2023-03-23T15:41:05;9.95;;;1.45;;
25721;SDS011;13578;53.450;15.496;2023-03-23T15:44:24;6.73;;;1.80;;
25721;SDS011;13578;53.450;15.496;2023-03-23T15:47:34;2.42;;;1.42;;
25721;SDS011;13578;53.450;15.496;2023-03-23T15:50:39;6.15;;;1.60;;
25721;SDS011;13578;53.450;15.496;2023-03-23T15:53:41;7.32;;;2.60;;
25721;SDS011;13578;53.450;15.496;2023-03-23T15:56:42;7.63;;;1.92;;
25721;SDS011;13578;53.450;15.496;2023-03-23T15:59:44;2.83;;;1.98;;
25721;SDS011;13578;53.450;15.496;2023-03-23T16:02:45;3.88;;;1.20;;
25721;SDS011;13578;53.450;15.496;2023-03-23T16:05:48;2.10;;;1.13;;
25721;SDS011;13578;53.450;15.496;2023-03-23T16:08:49;2.33;;;1.10;;
25721;SDS011;13578;53.450;15.496;2023-03-23T16:11:50;3.17;;;1.23;;
25721;SDS011;13578;53.450;15.496;2023-03-23T16:14:50;2.08;;;1.10;;
25721;SDS011;13578;53.450;15.496;2023-03-23T16:17:52;5.97;;;1.30;;
25721;SDS011;13578;53.450;15.496;2023-03-23T16:20:53;3.05;;;1.10;;
25721;SDS011;13578;53.450;15.496;2023-03-23T16:23:55;3.80;;;1.38;;
25721;SDS011;13578;53.450;15.496;2023-03-23T16:26:56;1.42;;;1.08;;
25721;SDS011;13578;53.450;15.496;2023-03-23T16:29:56;2.13;;;0.95;;
25721;SDS011;13578;53.450;15.496;2023-03-23T16:32:59;2.60;;;1.23;;
25721;SDS011;13578;53.450;15.496;2023-03-23T16:36:00;6.20;;;1.00;;
25721;SDS011;13578;53.450;15.496;2023-03-23T16:39:01;4.32;;;1.20;;
25721;SDS011;13578;53.450;15.496;2023-03-23T16:42:02;1.00;;;0.80;;
25721;SDS011;13578;53.450;15.496;2023-03-23T16:45:02;1.42;;;1.10;;
25721;SDS011;13578;53.450;15.496;2023-03-23T16:48:03;2.95;;;0.90;;
25721;SDS011;13578;53.450;15.496;2023-03-23T16:51:05;1.52;;;0.80;;
25721;SDS011;13578;53.450;15.496;2023-03-23T16:54:06;2.75;;;1.08;;
25721;SDS011;13578;53.450;15.496;2023-03-23T16:57:07;1.77;;;0.90;;
25721;SDS011;13578;53.450;15.496;2023-03-23T17:00:09;3.15;;;0.98;;
25721;SDS011;13578;53.450;15.496;2023-03-23T17:03:14;2.85;;;1.00;;
25721;SDS011;13578;53.450;15.496;2023-03-23T17:06:15;3.33;;;1.40;;
25721;SDS011;13578;53.450;15.496;2023-03-23T17:09:16;4.18;;;1.80;;
25721;SDS011;13578;53.450;15.496;2023-03-23T17:12:16;2.47;;;1.55;;
25721;SDS011;13578;53.450;15.496;2023-03-23T17:15:17;1.48;;;1.27;;
25721;SDS011;13578;53.450;15.496;2023-03-23T17:18:17;3.47;;;1.23;;
25721;SDS011;13578;53.450;15.496;2023-03-23T17:21:18;2.55;;;1.40;;
25721;SDS011;13578;53.450;15.496;2023-03-23T17:24:21;2.80;;;1.50;;
25721;SDS011;13578;53.450;15.496;2023-03-23T17:27:22;3.58;;;1.80;;
25721;SDS011;13578;53.450;15.496;2023-03-23T17:30:24;4.10;;;1.75;;
25721;SDS011;13578;53.450;15.496;2023-03-23T17:33:25;1.88;;;1.50;;
25721;SDS011;13578;53.450;15.496;2023-03-23T17:36:26;2.65;;;1.50;;
25721;SDS011;13578;53.450;15.496;2023-03-23T17:39:26;6.00;;;1.80;;
25721;SDS011;13578;53.450;15.496;2023-03-23T17:42:28;3.92;;;1.80;;
25721;SDS011;13578;53.450;15.496;2023-03-23T17:45:29;6.07;;;1.65;;
25721;SDS011;13578;53.450;15.496;2023-03-23T17:48:30;6.43;;;1.95;;
25721;SDS011;13578;53.450;15.496;2023-03-23T17:51:30;4.75;;;1.60;;
25721;SDS011;13578;53.450;15.496;2023-03-23T17:54:31;6.25;;;2.20;;
25721;SDS011;13578;53.450;15.496;2023-03-23T17:57:32;8.00;;;2.15;;
25721;SDS011;13578;53.450;15.496;2023-03-23T18:00:34;2.58;;;2.10;;
25721;SDS011;13578;53.450;15.496;2023-03-23T18:03:35;4.00;;;2.38;;
25721;SDS011;13578;53.450;15.496;2023-03-23T18:06:36;4.32;;;2.70;;
25721;SDS011;13578;53.450;15.496;2023-03-23T18:09:37;5.43;;;3.00;;
25721;SDS011;13578;53.450;15.496;2023-03-23T18:12:40;4.95;;;2.65;;
25721;SDS011;13578;53.450;15.496;2023-03-23T18:15:42;4.40;;;2.97;;
25721;SDS011;13578;53.450;15.496;2023-03-23T18:18:44;7.32;;;3.03;;
25721;SDS011;13578;53.450;15.496;2023-03-23T18:21:46;5.47;;;2.95;;
25721;SDS011;13578;53.450;15.496;2023-03-23T18:24:48;5.53;;;3.08;;
25721;SDS011;13578;53.450;15.496;2023-03-23T18:27:49;3.95;;;2.55;;
25721;SDS011;13578;53.450;15.496;2023-03-23T18:30:49;8.10;;;2.88;;
25721;SDS011;13578;53.450;15.496;2023-03-23T18:33:50;4.60;;;3.53;;
25721;SDS011;13578;53.450;15.496;2023-03-23T18:36:53;6.80;;;2.90;;
25721;SDS011;13578;53.450;15.496;2023-03-23T18:39:53;4.88;;;2.90;;
25721;SDS011;13578;53.450;15.496;2023-03-23T18:42:54;6.05;;;3.38;;
25721;SDS011;13578;53.450;15.496;2023-03-23T18:45:55;7.53;;;3.08;;
25721;SDS011;13578;53.450;15.496;2023-03-23T18:48:56;6.40;;;2.95;;
25721;SDS011;13578;53.450;15.496;2023-03-23T18:51:57;4.63;;;2.63;;
25721;SDS011;13578;53.450;15.496;2023-03-23T18:54:58;5.28;;;3.17;;
25721;SDS011;13578;53.450;15.496;2023-03-23T18:57:59;4.28;;;2.85;;
25721;SDS011;13578;53.450;15.496;2023-03-23T19:01:03;11.57;;;3.33;;
25721;SDS011;13578;53.450;15.496;2023-03-23T19:04:06;6.05;;;3.13;;
25721;SDS011;13578;53.450;15.496;2023-03-23T19:07:06;5.43;;;2.88;;
25721;SDS011;13578;53.450;15.496;2023-03-23T19:10:07;4.95;;;3.00;;
25721;SDS011;13578;53.450;15.496;2023-03-23T19:13:08;8.73;;;3.45;;
25721;SDS011;13578;53.450;15.496;2023-03-23T19:16:10;5.90;;;3.50;;
25721;SDS011;13578;53.450;15.496;2023-03-23T19:19:10;9.38;;;3.08;;
25721;SDS011;13578;53.450;15.496;2023-03-23T19:22:12;5.32;;;3.42;;
25721;SDS011;13578;53.450;15.496;2023-03-23T19:25:13;6.95;;;3.40;;
25721;SDS011;13578;53.450;15.496;2023-03-23T19:28:14;5.72;;;3.17;;
25721;SDS011;13578;53.450;15.496;2023-03-23T19:31:15;4.00;;;2.85;;
25721;SDS011;13578;53.450;15.496;2023-03-23T19:34:18;8.52;;;3.25;;
25721;SDS011;13578;53.450;15.496;2023-03-23T19:37:19;6.88;;;3.72;;
25721;SDS011;13578;53.450;15.496;2023-03-23T19:40:20;7.07;;;4.20;;
25721;SDS011;13578;53.450;15.496;2023-03-23T19:43:20;7.45;;;3.17;;
25721;SDS011;13578;53.450;15.496;2023-03-23T19:46:21;5.35;;;3.50;;
25721;SDS011;13578;53.450;15.496;2023-03-23T19:49:25;8.00;;;3.58;;
25721;SDS011;13578;53.450;15.496;2023-03-23T19:52:26;7.65;;;3.72;;
25721;SDS011;13578;53.450;15.496;2023-03-23T19:55:27;7.07;;;3.88;;